Em1003 — WDI9476 — position and weather

sailwx.info

Track history (hours):
 
Tides and Currents Weather Stations Pressure Air Temp Water Temp Dewpoint Dewpoint Depression Visibility Wind Speed Wind Dir Waves Ship Positions

Em1003

Owner: Dutra Group, San Rafael, CA. More information available from US FCC via Universal Licensing System and Coast Guard Vessel Documentation Center.

Last reported at 2018-Jul-18 00:19 UTC. Time now 2018-Jul-21 15:33 UTC.
Position N 38°02' W 122°22'.

; draft 7 m.

MMSI: 367748970.

Date/timePositionNaut miles runAvg speedWind from/ knotsBaromVisibWave heightAir tempDewpointWater temp
2018-Jul-18 00:19N 38°02' W 122°22'2 7.1
2018-Jul-18 00:00N 38°00' W 122°24'4 7.0
2018-Jul-17 23:30N 37°57' W 122°26'4 7.5
2018-Jul-17 23:00N 37°53' W 122°25'3 6.3
2018-Jul-17 22:30N 37°51' W 122°22'2 4.3
2018-Jul-17 22:00N 37°49' W 122°21'2 4.1
2018-Jul-17 21:30N 37°49' W 122°19'1 1.8
2018-Jul-17 21:00N 37°49' W 122°20'2 3.2
2018-Jul-17 20:30N 37°48' W 122°22'3 5.2
2018-Jul-17 20:00N 37°49' W 122°19'0 0.0
2018-Jul-17 19:30N 37°49' W 122°19'0 0.0
2018-Jul-17 19:00N 37°49' W 122°19'0 0.0
2018-Jul-17 18:30N 37°49' W 122°19'0 0.1
2018-Jul-17 17:59N 37°49' W 122°19'0 0.1
2018-Jul-17 17:30N 37°49' W 122°19'0 0.1
2018-Jul-17 17:00N 37°49' W 122°19'2 4.9
2018-Jul-17 16:30N 37°48' W 122°21'1 2.1
2018-Jul-17 16:00N 37°48' W 122°23'0 0.3
2018-Jul-17 15:30N 37°48' W 122°23'0 0.5
2018-Jul-17 15:00N 37°48' W 122°23'0 0.1
2018-Jul-17 14:30N 37°48' W 122°23'0 0.5
2018-Jul-17 14:00N 37°48' W 122°23'3 6.2
2018-Jul-17 13:30N 37°49' W 122°19'1 0.0
2018-Jul-16 21:28N 37°49' W 122°18'3 6.1
2018-Jul-16 21:00N 37°48' W 122°22'1 1.9
2018-Jul-16 20:30N 37°48' W 122°23'0 0.0
2018-Jul-16 20:00N 37°48' W 122°23'0 0.0
2018-Jul-16 19:30N 37°48' W 122°23'0 0.0
2018-Jul-16 19:00N 37°48' W 122°23'0 0.0
2018-Jul-16 18:30N 37°48' W 122°23'0 0.0
2018-Jul-16 18:00N 37°48' W 122°23'2 4.5
2018-Jul-16 17:30N 37°50' W 122°23'3 5.6
2018-Jul-16 17:00N 37°53' W 122°23'2 3.8
2018-Jul-16 16:30N 37°54' W 122°22'0 0.0
2018-Jul-16 16:00N 37°54' W 122°22'0 0.0
2018-Jul-16 15:30N 37°54' W 122°22'2 3.2
2018-Jul-16 15:00N 37°53' W 122°23'3 6.6
2018-Jul-16 14:30N 37°50' W 122°23'2 4.4
2018-Jul-16 14:00N 37°48' W 122°23'3 6.5
2018-Jul-16 13:30N 37°49' W 122°19'  
2018-Jul-13 21:00N 37°49' W 122°18'3 6.8
2018-Jul-13 20:30N 37°48' W 122°22'0 0.8
2018-Jul-13 20:00N 37°48' W 122°23'0 0.0
2018-Jul-13 19:30N 37°48' W 122°23'0 0.0
2018-Jul-13 19:00N 37°48' W 122°23'0 0.0
2018-Jul-13 18:30N 37°48' W 122°23'0 0.0
2018-Jul-13 18:00N 37°48' W 122°23'0 0.0
2018-Jul-13 17:30N 37°48' W 122°23'0 0.0
2018-Jul-13 17:00N 37°48' W 122°23'0 0.0
2018-Jul-13 16:30N 37°48' W 122°23'0 0.0
2018-Jul-13 16:00N 37°48' W 122°23'0 0.0
2018-Jul-13 15:30N 37°48' W 122°23'0 0.0
2018-Jul-13 15:00N 37°48' W 122°23'0 0.0
2018-Jul-13 14:30N 37°48' W 122°23'1 0.5
2018-Jul-13 13:30N 37°48' W 122°22'3 6.4
2018-Jul-13 13:00N 37°49' W 122°18'0 0.0
2018-Jul-12 21:17N 37°49' W 122°18'2 5.7
2018-Jul-12 21:00N 37°49' W 122°20'2 4.2
2018-Jul-12 20:30N 37°48' W 122°23'0 0.0
2018-Jul-12 20:00N 37°48' W 122°23'1 2.6
2018-Jul-12 19:31N 37°48' W 122°21'2 4.5
2018-Jul-12 19:00N 37°49' W 122°19'3 6.9
2018-Jul-12 18:30N 37°48' W 122°23'0 0.2
2018-Jul-12 18:00N 37°48' W 122°23'0 0.0
2018-Jul-12 17:30N 37°48' W 122°23'0 0.0
2018-Jul-12 17:01N 37°48' W 122°23'0 0.9
2018-Jul-12 16:30N 37°48' W 122°22'3 6.6
2018-Jul-12 16:01N 37°49' W 122°19'3 5.8
2018-Jul-12 15:30N 37°48' W 122°22'1 1.5
2018-Jul-12 15:01N 37°48' W 122°23'0 0.0
2018-Jul-12 14:30N 37°48' W 122°23'0 0.0
2018-Jul-12 14:00N 37°48' W 122°23'1 2.6
2018-Jul-12 13:30N 37°48' W 122°21'2 0.2
2018-Jul-11 21:19N 37°49' W 122°18'2 5.5
2018-Jul-11 21:00N 37°49' W 122°20'2 4.1
2018-Jul-11 20:30N 37°48' W 122°23'0 0.0
2018-Jul-11 20:00N 37°48' W 122°23'3 6.1
2018-Jul-11 19:30N 37°49' W 122°19'1 1.3
2018-Jul-11 19:00N 37°49' W 122°18'0 0.2
2018-Jul-11 18:29N 37°49' W 122°19'3 6.4
2018-Jul-11 18:00N 37°48' W 122°22'1 1.2
2018-Jul-11 17:28N 37°48' W 122°23'0 0.0
2018-Jul-11 17:00N 37°48' W 122°23'0 0.0
2018-Jul-11 16:30N 37°48' W 122°23'3 5.2
2018-Jul-11 16:00N 37°49' W 122°20'1 1.3
2018-Jul-11 15:30N 37°48' W 122°21'2 3.9
2018-Jul-11 15:00N 37°48' W 122°23'0 0.0
2018-Jul-11 14:30N 37°48' W 122°23'0 0.0
2018-Jul-11 14:00N 37°48' W 122°23'1 1.8
2018-Jul-11 13:30N 37°48' W 122°22'3 5.4
2018-Jul-11 12:59N 37°49' W 122°18'0 0.0
2018-Jul-10 21:02N 37°49' W 122°18'0 0.0
2018-Jul-10 21:00N 37°49' W 122°18'3 6.2
2018-Jul-10 20:30N 37°48' W 122°22'1 1.3
2018-Jul-10 19:59N 37°48' W 122°23'0 0.0
2018-Jul-10 19:30N 37°48' W 122°23'0 0.2
2018-Jul-10 19:00N 37°48' W 122°23'2 3.5
2018-Jul-10 18:30N 37°48' W 122°21'2 3.4
2018-Jul-10 18:01N 37°49' W 122°19'3 6.7
2018-Jul-10 17:30N 37°48' W 122°23'0 0.0
2018-Jul-10 16:59N 37°48' W 122°23'0 0.0
2018-Jul-10 16:30N 37°48' W 122°23'0 0.0
2018-Jul-10 16:01N 37°48' W 122°23'0 0.1
2018-Jul-10 15:30N 37°48' W 122°23'0 0.3
2018-Jul-10 15:01N 37°48' W 122°23'0 0.4
2018-Jul-10 14:30N 37°48' W 122°23'0 0.3
2018-Jul-10 14:00N 37°48' W 122°23'1 1.4
2018-Jul-10 13:31N 37°48' W 122°22'3 0.2
2018-Jul-09 21:21N 37°49' W 122°18'2 7.3
2018-Jul-09 21:00N 37°48' W 122°21'1 2.1
2018-Jul-09 20:30N 37°48' W 122°23'0 0.0
2018-Jul-09 20:00N 37°48' W 122°23'0 0.0
2018-Jul-09 19:30N 37°48' W 122°23'0 0.0
2018-Jul-09 19:00N 37°48' W 122°23'0 0.0
2018-Jul-09 18:30N 37°48' W 122°23'0 0.0
2018-Jul-09 18:00N 37°48' W 122°23'0 0.0
2018-Jul-09 17:30N 37°48' W 122°23'0 0.0
2018-Jul-09 17:00N 37°48' W 122°23'0 0.0
2018-Jul-09 16:30N 37°48' W 122°23'0 0.0
2018-Jul-09 16:00N 37°48' W 122°23'0 0.0
2018-Jul-09 15:30N 37°48' W 122°23'0 0.0
2018-Jul-09 15:00N 37°48' W 122°23'0 0.0
2018-Jul-09 14:30N 37°48' W 122°23'0 0.0
2018-Jul-09 14:00N 37°48' W 122°23'0 0.0
2018-Jul-09 13:30N 37°48' W 122°23'3 6.6
2018-Jul-09 13:00N 37°49' W 122°19'  
Track history (hours):
 
Tides and Currents Weather Stations Pressure Air Temp Water Temp Dewpoint Dewpoint Depression Visibility Wind Speed Wind Dir Waves Ship Positions

Em1003

Owner: Dutra Group, San Rafael, CA. More information available from US FCC via Universal Licensing System and Coast Guard Vessel Documentation Center.

Last reported at 2018-Jul-18 00:19 UTC. Time now 2018-Jul-21 15:33 UTC.
Position N 38°02' W 122°22'.

; draft 7 m.

MMSI: 367748970.

Date/timePositionNaut miles runAvg speedWind from/ knotsBaromVisibWave heightAir tempDewpointWater temp
2018-Jul-18 00:19N 38°02' W 122°22'2 7.1
2018-Jul-18 00:00N 38°00' W 122°24'4 7.0
2018-Jul-17 23:30N 37°57' W 122°26'4 7.5
2018-Jul-17 23:00N 37°53' W 122°25'3 6.3
2018-Jul-17 22:30N 37°51' W 122°22'2 4.3
2018-Jul-17 22:00N 37°49' W 122°21'2 4.1
2018-Jul-17 21:30N 37°49' W 122°19'1 1.8
2018-Jul-17 21:00N 37°49' W 122°20'2 3.2
2018-Jul-17 20:30N 37°48' W 122°22'3 5.2
2018-Jul-17 20:00N 37°49' W 122°19'0 0.0
2018-Jul-17 19:30N 37°49' W 122°19'0 0.0
2018-Jul-17 19:00N 37°49' W 122°19'0 0.0
2018-Jul-17 18:30N 37°49' W 122°19'0 0.1
2018-Jul-17 17:59N 37°49' W 122°19'0 0.1
2018-Jul-17 17:30N 37°49' W 122°19'0 0.1
2018-Jul-17 17:00N 37°49' W 122°19'2 4.9
2018-Jul-17 16:30N 37°48' W 122°21'1 2.1
2018-Jul-17 16:00N 37°48' W 122°23'0 0.3
2018-Jul-17 15:30N 37°48' W 122°23'0 0.5
2018-Jul-17 15:00N 37°48' W 122°23'0 0.1
2018-Jul-17 14:30N 37°48' W 122°23'0 0.5
2018-Jul-17 14:00N 37°48' W 122°23'3 6.2
2018-Jul-17 13:30N 37°49' W 122°19'1 0.0
2018-Jul-16 21:28N 37°49' W 122°18'3 6.1
2018-Jul-16 21:00N 37°48' W 122°22'1 1.9
2018-Jul-16 20:30N 37°48' W 122°23'0 0.0
2018-Jul-16 20:00N 37°48' W 122°23'0 0.0
2018-Jul-16 19:30N 37°48' W 122°23'0 0.0
2018-Jul-16 19:00N 37°48' W 122°23'0 0.0
2018-Jul-16 18:30N 37°48' W 122°23'0 0.0
2018-Jul-16 18:00N 37°48' W 122°23'2 4.5
2018-Jul-16 17:30N 37°50' W 122°23'3 5.6
2018-Jul-16 17:00N 37°53' W 122°23'2 3.8
2018-Jul-16 16:30N 37°54' W 122°22'0 0.0
2018-Jul-16 16:00N 37°54' W 122°22'0 0.0
2018-Jul-16 15:30N 37°54' W 122°22'2 3.2
2018-Jul-16 15:00N 37°53' W 122°23'3 6.6
2018-Jul-16 14:30N 37°50' W 122°23'2 4.4
2018-Jul-16 14:00N 37°48' W 122°23'3 6.5
2018-Jul-16 13:30N 37°49' W 122°19'  
2018-Jul-13 21:00N 37°49' W 122°18'3 6.8
2018-Jul-13 20:30N 37°48' W 122°22'0 0.8
2018-Jul-13 20:00N 37°48' W 122°23'0 0.0
2018-Jul-13 19:30N 37°48' W 122°23'0 0.0
2018-Jul-13 19:00N 37°48' W 122°23'0 0.0
2018-Jul-13 18:30N 37°48' W 122°23'0 0.0
2018-Jul-13 18:00N 37°48' W 122°23'0 0.0
2018-Jul-13 17:30N 37°48' W 122°23'0 0.0
2018-Jul-13 17:00N 37°48' W 122°23'0 0.0
2018-Jul-13 16:30N 37°48' W 122°23'0 0.0
2018-Jul-13 16:00N 37°48' W 122°23'0 0.0
2018-Jul-13 15:30N 37°48' W 122°23'0 0.0
2018-Jul-13 15:00N 37°48' W 122°23'0 0.0
2018-Jul-13 14:30N 37°48' W 122°23'1 0.5
2018-Jul-13 13:30N 37°48' W 122°22'3 6.4
2018-Jul-13 13:00N 37°49' W 122°18'0 0.0
2018-Jul-12 21:17N 37°49' W 122°18'2 5.7
2018-Jul-12 21:00N 37°49' W 122°20'2 4.2
2018-Jul-12 20:30N 37°48' W 122°23'0 0.0
2018-Jul-12 20:00N 37°48' W 122°23'1 2.6
2018-Jul-12 19:31N 37°48' W 122°21'2 4.5
2018-Jul-12 19:00N 37°49' W 122°19'3 6.9
2018-Jul-12 18:30N 37°48' W 122°23'0 0.2
2018-Jul-12 18:00N 37°48' W 122°23'0 0.0
2018-Jul-12 17:30N 37°48' W 122°23'0 0.0
2018-Jul-12 17:01N 37°48' W 122°23'0 0.9
2018-Jul-12 16:30N 37°48' W 122°22'3 6.6
2018-Jul-12 16:01N 37°49' W 122°19'3 5.8
2018-Jul-12 15:30N 37°48' W 122°22'1 1.5
2018-Jul-12 15:01N 37°48' W 122°23'0 0.0
2018-Jul-12 14:30N 37°48' W 122°23'0 0.0
2018-Jul-12 14:00N 37°48' W 122°23'1 2.6
2018-Jul-12 13:30N 37°48' W 122°21'2 0.2
2018-Jul-11 21:19N 37°49' W 122°18'2 5.5
2018-Jul-11 21:00N 37°49' W 122°20'2 4.1
2018-Jul-11 20:30N 37°48' W 122°23'0 0.0
2018-Jul-11 20:00N 37°48' W 122°23'3 6.1
2018-Jul-11 19:30N 37°49' W 122°19'1 1.3
2018-Jul-11 19:00N 37°49' W 122°18'0 0.2
2018-Jul-11 18:29N 37°49' W 122°19'3 6.4
2018-Jul-11 18:00N 37°48' W 122°22'1 1.2
2018-Jul-11 17:28N 37°48' W 122°23'0 0.0
2018-Jul-11 17:00N 37°48' W 122°23'0 0.0
2018-Jul-11 16:30N 37°48' W 122°23'3 5.2
2018-Jul-11 16:00N 37°49' W 122°20'1 1.3
2018-Jul-11 15:30N 37°48' W 122°21'2 3.9
2018-Jul-11 15:00N 37°48' W 122°23'0 0.0
2018-Jul-11 14:30N 37°48' W 122°23'0 0.0
2018-Jul-11 14:00N 37°48' W 122°23'1 1.8
2018-Jul-11 13:30N 37°48' W 122°22'3 5.4
2018-Jul-11 12:59N 37°49' W 122°18'0 0.0
2018-Jul-10 21:02N 37°49' W 122°18'0 0.0
2018-Jul-10 21:00N 37°49' W 122°18'3 6.2
2018-Jul-10 20:30N 37°48' W 122°22'1 1.3
2018-Jul-10 19:59N 37°48' W 122°23'0 0.0
2018-Jul-10 19:30N 37°48' W 122°23'0 0.2
2018-Jul-10 19:00N 37°48' W 122°23'2 3.5
2018-Jul-10 18:30N 37°48' W 122°21'2 3.4
2018-Jul-10 18:01N 37°49' W 122°19'3 6.7
2018-Jul-10 17:30N 37°48' W 122°23'0 0.0
2018-Jul-10 16:59N 37°48' W 122°23'0 0.0
2018-Jul-10 16:30N 37°48' W 122°23'0 0.0
2018-Jul-10 16:01N 37°48' W 122°23'0 0.1
2018-Jul-10 15:30N 37°48' W 122°23'0 0.3
2018-Jul-10 15:01N 37°48' W 122°23'0 0.4
2018-Jul-10 14:30N 37°48' W 122°23'0 0.3
2018-Jul-10 14:00N 37°48' W 122°23'1 1.4
2018-Jul-10 13:31N 37°48' W 122°22'3 0.2
2018-Jul-09 21:21N 37°49' W 122°18'2 7.3
2018-Jul-09 21:00N 37°48' W 122°21'1 2.1
2018-Jul-09 20:30N 37°48' W 122°23'0 0.0
2018-Jul-09 20:00N 37°48' W 122°23'0 0.0
2018-Jul-09 19:30N 37°48' W 122°23'0 0.0
2018-Jul-09 19:00N 37°48' W 122°23'0 0.0
2018-Jul-09 18:30N 37°48' W 122°23'0 0.0
2018-Jul-09 18:00N 37°48' W 122°23'0 0.0
2018-Jul-09 17:30N 37°48' W 122°23'0 0.0
2018-Jul-09 17:00N 37°48' W 122°23'0 0.0
2018-Jul-09 16:30N 37°48' W 122°23'0 0.0
2018-Jul-09 16:00N 37°48' W 122°23'0 0.0
2018-Jul-09 15:30N 37°48' W 122°23'0 0.0
2018-Jul-09 15:00N 37°48' W 122°23'0 0.0
2018-Jul-09 14:30N 37°48' W 122°23'0 0.0
2018-Jul-09 14:00N 37°48' W 122°23'0 0.0
2018-Jul-09 13:30N 37°48' W 122°23'3 6.6
2018-Jul-09 13:00N 37°49' W 122°19'  

Dump ship's entire track history